Time;durP1;ratioP1;P1;durP2;ratioP2;P2;SDS_P1;SDS_P2;PMS_P1;PMS_P2;Temp;Humidity;BMP_temperature;BMP_pressure;BME280_temperature;BME280_humidity;BME280_pressure;Samples;Min_cycle;Max_cycle;Signal;HPM_P1;HPM_P2
2023/12/08 00:00:13;;;;;;;5.57;1.48;;;2.20;99.90;;;;;;4429322;32;20524;-61
2023/12/08 00:02:38;;;;;;;0.50;0.50;;;2.20;99.90;;;;;;4432448;32;20073;-60
2023/12/08 00:05:04;;;;;;;0.50;0.50;;;2.20;99.90;;;;;;4430667;32;20086;-60
2023/12/08 00:07:30;;;;;;;1.85;1.30;;;2.20;99.90;;;;;;4427318;32;20116;-60
2023/12/08 00:09:55;;;;;;;0.73;0.73;;;2.20;99.90;;;;;;4428491;32;20081;-60
2023/12/08 00:12:21;;;;;;;9.90;2.10;;;2.30;99.90;;;;;;4426812;32;20477;-61
2023/12/08 00:14:46;;;;;;;2.78;0.98;;;2.30;99.90;;;;;;4426718;32;20073;-60
2023/12/08 00:17:12;;;;;;;2.37;1.40;;;2.30;99.90;;;;;;4431110;32;20081;-60
2023/12/08 00:19:37;;;;;;;1.92;1.45;;;2.30;99.90;;;;;;4428323;32;20105;-58
2023/12/08 00:22:03;;;;;;;1.62;1.08;;;2.20;99.90;;;;;;4430413;32;20073;-60
2023/12/08 00:24:28;;;;;;;0.98;0.52;;;2.20;99.90;;;;;;4429268;32;20226;-60
2023/12/08 00:26:54;;;;;;;0.57;0.57;;;2.20;99.90;;;;;;4428852;32;20120;-60
2023/12/08 00:29:19;;;;;;;1.08;0.98;;;2.20;99.90;;;;;;4426359;32;20116;-60
2023/12/08 00:31:45;;;;;;;0.98;0.95;;;2.20;99.90;;;;;;4420650;32;20185;-60
2023/12/08 00:34:11;;;;;;;0.75;0.75;;;2.20;99.90;;;;;;4423907;32;20069;-60
2023/12/08 00:36:36;;;;;;;1.55;1.15;;;2.30;99.90;;;;;;4414349;32;20548;-60
2023/12/08 00:39:02;;;;;;;0.50;0.50;;;2.20;99.90;;;;;;4430286;32;20076;-60
2023/12/08 00:41:28;;;;;;;1.37;0.95;;;2.20;99.90;;;;;;4414910;32;20070;-59
2023/12/08 00:43:53;;;;;;;1.48;1.37;;;2.10;99.90;;;;;;4428399;32;20120;-60
2023/12/08 00:46:19;;;;;;;0.82;0.82;;;2.20;99.90;;;;;;4416154;32;20077;-60
2023/12/08 00:48:44;;;;;;;0.90;0.90;;;2.20;99.90;;;;;;4427477;32;20085;-60
2023/12/08 00:51:12;;;;;;;3.20;1.85;;;2.20;99.90;;;;;;4432801;32;20069;-59
2023/12/08 00:53:39;;;;;;;2.90;1.35;;;2.20;99.90;;;;;;4430010;32;20070;-58
2023/12/08 00:56:05;;;;;;;1.40;1.30;;;2.20;99.90;;;;;;4433181;32;20410;-60
2023/12/08 00:58:31;;;;;;;3.22;1.67;;;2.20;99.90;;;;;;4432024;32;20108;-61
2023/12/08 01:00:57;;;;;;;0.50;0.50;;;2.20;99.90;;;;;;4431469;32;20070;-59
2023/12/08 01:03:22;;;;;;;1.27;1.12;;;2.30;99.90;;;;;;4434388;32;20161;-58
2023/12/08 01:05:48;;;;;;;0.85;0.80;;;2.20;99.90;;;;;;4434381;32;20089;-57
2023/12/08 01:08:13;;;;;;;1.80;0.80;;;2.30;99.90;;;;;;4434629;32;20259;-60
2023/12/08 01:10:39;;;;;;;1.80;1.20;;;2.30;99.90;;;;;;4430970;32;20124;-59
2023/12/08 01:13:04;;;;;;;0.98;0.95;;;2.30;99.90;;;;;;4432284;32;20205;-60
2023/12/08 01:15:30;;;;;;;0.80;0.80;;;2.30;99.90;;;;;;4416723;32;20143;-60
2023/12/08 01:17:55;;;;;;;0.93;0.93;;;2.20;99.90;;;;;;4431576;32;20066;-60
2023/12/08 01:20:21;;;;;;;1.35;0.93;;;2.20;99.90;;;;;;4429324;32;20169;-57
2023/12/08 01:22:46;;;;;;;1.48;1.35;;;2.30;99.90;;;;;;4433150;32;20065;-59
2023/12/08 01:25:11;;;;;;;0.50;0.50;;;2.20;99.90;;;;;;4430847;32;20111;-60
2023/12/08 01:27:37;;;;;;;0.52;0.52;;;2.20;99.90;;;;;;4430906;32;20065;-59
2023/12/08 01:30:03;;;;;;;1.30;1.20;;;2.30;99.90;;;;;;4431542;32;20134;-60
2023/12/08 01:32:28;;;;;;;0.85;0.85;;;2.20;99.90;;;;;;4429917;32;20141;-61
2023/12/08 01:34:54;;;;;;;2.95;1.27;;;2.10;99.90;;;;;;4434159;32;20537;-60
2023/12/08 01:37:19;;;;;;;1.42;1.33;;;2.30;99.90;;;;;;4429422;32;20081;-60
2023/12/08 01:39:46;;;;;;;3.30;1.67;;;2.30;99.90;;;;;;4433014;32;20084;-60
2023/12/08 01:42:12;;;;;;;1.40;1.23;;;2.30;99.90;;;;;;4429888;32;20073;-60
2023/12/08 01:44:37;;;;;;;0.55;0.55;;;2.30;99.90;;;;;;4431139;32;20549;-60
2023/12/08 01:47:05;;;;;;;2.75;2.03;;;2.30;99.90;;;;;;4429099;32;20132;-60
2023/12/08 01:49:30;;;;;;;1.08;1.05;;;2.20;99.90;;;;;;4428634;32;20089;-60
2023/12/08 01:51:57;;;;;;;0.77;0.77;;;2.20;99.90;;;;;;4414961;32;20061;-59
2023/12/08 01:54:22;;;;;;;1.25;1.15;;;2.20;99.90;;;;;;4434292;32;20093;-58
2023/12/08 01:56:48;;;;;;;0.60;0.60;;;2.30;99.90;;;;;;4435330;32;20667;-59
2023/12/08 01:59:14;;;;;;;1.02;0.73;;;2.30;99.90;;;;;;4433579;32;20069;-60
2023/12/08 02:01:40;;;;;;;0.77;0.77;;;2.20;99.90;;;;;;4420181;32;20053;-60
2023/12/08 02:04:06;;;;;;;1.37;0.93;;;2.20;99.90;;;;;;4431732;32;20671;-59
2023/12/08 02:06:32;;;;;;;1.52;1.42;;;2.30;99.90;;;;;;4429670;32;20473;-58
2023/12/08 02:08:58;;;;;;;0.85;0.85;;;2.30;99.90;;;;;;4431086;32;20089;-59
2023/12/08 02:11:24;;;;;;;1.35;1.25;;;2.30;99.90;;;;;;4415433;32;20120;-61
2023/12/08 02:13:49;;;;;;;0.57;0.57;;;2.30;99.90;;;;;;4415866;32;20081;-57
2023/12/08 02:16:18;;;;;;;2.53;1.25;;;2.40;99.90;;;;;;4417404;32;20532;-59
2023/12/08 02:18:44;;;;;;;1.17;1.12;;;2.30;99.90;;;;;;4413720;32;20099;-60
2023/12/08 02:21:13;;;;;;;1.87;1.70;;;2.30;99.90;;;;;;4410488;32;20144;-58
2023/12/08 02:23:42;;;;;;;0.70;0.70;;;2.30;99.90;;;;;;4415765;32;20536;-60
2023/12/08 02:26:10;;;;;;;1.65;1.08;;;2.30;99.90;;;;;;4416397;32;20070;-59
2023/12/08 02:28:35;;;;;;;1.02;1.00;;;2.30;99.90;;;;;;4427343;32;20073;-59
2023/12/08 02:31:05;;;;;;;1.58;1.30;;;2.30;99.90;;;;;;4426816;32;20073;-60
2023/12/08 02:33:32;;;;;;;1.35;1.25;;;2.30;99.90;;;;;;4429344;32;20131;-61
2023/12/08 02:36:01;;;;;;;2.75;2.05;;;2.30;99.90;;;;;;4428155;32;20064;-60
2023/12/08 02:38:27;;;;;;;0.70;0.70;;;2.30;99.90;;;;;;4429239;32;20444;-61
2023/12/08 02:40:54;;;;;;;4.93;2.05;;;2.20;99.90;;;;;;4411061;32;20073;-60
2023/12/08 02:43:19;;;;;;;0.60;0.60;;;2.30;99.90;;;;;;4413881;32;20065;-60
2023/12/08 02:45:45;;;;;;;0.77;0.77;;;2.30;99.90;;;;;;4429356;32;20074;-60
2023/12/08 02:48:10;;;;;;;0.52;0.52;;;2.30;99.90;;;;;;4429768;32;20131;-60
2023/12/08 02:50:36;;;;;;;4.15;1.42;;;2.30;99.90;;;;;;4428664;32;20065;-59
2023/12/08 02:53:01;;;;;;;5.87;1.77;;;2.30;99.90;;;;;;4429183;32;20077;-60
2023/12/08 02:55:27;;;;;;;5.12;2.05;;;2.40;99.90;;;;;;4429174;32;20070;-60
2023/12/08 02:57:52;;;;;;;1.23;1.08;;;2.40;99.90;;;;;;4428636;32;20065;-60
2023/12/08 03:00:18;;;;;;;2.10;1.60;;;2.50;99.90;;;;;;4430357;32;20073;-60
2023/12/08 03:02:43;;;;;;;0.93;0.93;;;2.40;99.90;;;;;;4430666;32;20077;-60
2023/12/08 03:05:09;;;;;;;2.95;1.45;;;2.40;99.90;;;;;;4432496;32;20085;-61
2023/12/08 03:07:35;;;;;;;1.75;1.35;;;2.40;99.90;;;;;;4427638;32;20065;-59
2023/12/08 03:10:00;;;;;;;0.80;0.80;;;2.40;99.90;;;;;;4429771;32;20065;-59
2023/12/08 03:12:26;;;;;;;3.92;1.98;;;2.40;99.90;;;;;;4408291;32;20117;-59
2023/12/08 03:14:51;;;;;;;5.45;1.62;;;2.40;99.90;;;;;;4427769;32;20061;-57
2023/12/08 03:17:17;;;;;;;2.70;1.42;;;2.50;99.90;;;;;;4416887;32;20069;-59
2023/12/08 03:19:42;;;;;;;0.80;0.80;;;2.50;99.90;;;;;;4429574;32;20057;-60
2023/12/08 03:22:08;;;;;;;3.83;1.30;;;2.50;99.90;;;;;;4413650;32;20975;-59
2023/12/08 03:24:33;;;;;;;0.88;0.88;;;2.60;99.90;;;;;;4429575;32;20073;-60
2023/12/08 03:26:59;;;;;;;0.77;0.77;;;2.50;99.90;;;;;;4429166;32;20541;-59
2023/12/08 03:29:25;;;;;;;0.73;0.73;;;2.60;99.90;;;;;;4410873;32;20085;-59
2023/12/08 03:31:51;;;;;;;1.30;1.02;;;2.50;99.90;;;;;;4427711;32;20435;-59
2023/12/08 03:34:16;;;;;;;5.35;1.98;;;2.60;99.90;;;;;;4428222;32;20124;-60
2023/12/08 03:36:42;;;;;;;1.08;1.08;;;2.60;99.90;;;;;;4431013;32;20508;-60
2023/12/08 03:39:07;;;;;;;0.95;0.95;;;2.70;99.90;;;;;;4426718;32;20422;-59
2023/12/08 03:41:33;;;;;;;0.82;0.82;;;2.60;99.90;;;;;;4429788;32;20114;-58
2023/12/08 03:43:58;;;;;;;0.50;0.50;;;2.50;99.90;;;;;;4427923;32;20373;-59
2023/12/08 03:46:24;;;;;;;2.58;1.92;;;2.50;99.90;;;;;;4427205;32;20073;-59
2023/12/08 03:48:49;;;;;;;1.70;1.37;;;2.50;99.90;;;;;;4430429;32;20082;-61
2023/12/08 03:51:15;;;;;;;1.15;1.05;;;2.50;99.90;;;;;;4399852;32;20062;-60
2023/12/08 03:53:40;;;;;;;1.87;1.75;;;2.50;99.90;;;;;;4429492;32;20084;-61
2023/12/08 03:56:06;;;;;;;0.93;0.93;;;2.50;99.90;;;;;;4427824;32;20069;-61
2023/12/08 03:58:32;;;;;;;2.33;1.62;;;2.60;99.90;;;;;;4431486;32;20085;-60
2023/12/08 04:00:57;;;;;;;0.75;0.75;;;2.60;99.90;;;;;;4417158;32;20406;-60
2023/12/08 04:03:23;;;;;;;4.35;1.35;;;2.60;99.90;;;;;;4426195;32;20184;-60
2023/12/08 04:05:49;;;;;;;2.42;1.02;;;2.60;99.90;;;;;;4430741;32;20054;-60
2023/12/08 04:08:14;;;;;;;1.27;1.10;;;2.60;99.90;;;;;;4427670;32;20093;-61
2023/12/08 04:10:40;;;;;;;4.82;1.73;;;2.60;99.90;;;;;;4430952;32;20105;-60
2023/12/08 04:13:06;;;;;;;1.02;1.00;;;2.70;99.90;;;;;;4432846;32;20073;-61
2023/12/08 04:15:31;;;;;;;0.75;0.75;;;2.70;99.90;;;;;;4429680;32;20068;-61
2023/12/08 04:17:57;;;;;;;0.70;0.70;;;2.70;99.90;;;;;;4429453;32;20065;-61
2023/12/08 04:20:23;;;;;;;1.35;1.25;;;2.70;99.90;;;;;;4431076;32;20104;-61
2023/12/08 04:22:48;;;;;;;2.20;1.33;;;2.70;99.90;;;;;;4427976;32;20082;-60
2023/12/08 04:25:14;;;;;;;6.90;2.33;;;2.70;99.90;;;;;;4431383;32;20069;-60
2023/12/08 04:27:40;;;;;;;5.32;1.85;;;2.70;99.90;;;;;;4434416;32;20085;-60
2023/12/08 04:30:06;;;;;;;2.08;1.65;;;2.70;99.90;;;;;;4419686;32;20061;-61
2023/12/08 04:32:32;;;;;;;0.70;0.65;;;2.70;99.90;;;;;;4432992;32;20066;-60
2023/12/08 04:34:57;;;;;;;0.73;0.73;;;2.80;99.90;;;;;;4429794;32;20108;-61
2023/12/08 04:37:23;;;;;;;0.50;0.50;;;2.70;99.90;;;;;;4431775;32;20146;-60
2023/12/08 04:39:48;;;;;;;0.90;0.90;;;2.70;99.90;;;;;;4432309;32;20081;-60
2023/12/08 04:42:14;;;;;;;1.40;1.30;;;2.60;99.90;;;;;;4430050;32;20111;-61
2023/12/08 04:44:40;;;;;;;3.00;2.42;;;2.60;99.90;;;;;;4431547;32;20069;-61
2023/12/08 04:47:05;;;;;;;0.73;0.73;;;2.60;99.90;;;;;;4429710;32;20066;-60
2023/12/08 04:49:31;;;;;;;1.52;1.30;;;2.70;99.90;;;;;;4430625;32;20082;-60
2023/12/08 04:51:56;;;;;;;0.80;0.80;;;2.70;99.90;;;;;;4431060;32;20639;-61
2023/12/08 04:54:22;;;;;;;1.27;1.17;;;2.60;99.90;;;;;;4431440;32;20061;-61
2023/12/08 04:56:47;;;;;;;9.77;2.00;;;2.60;99.90;;;;;;4432975;32;20117;-60
2023/12/08 04:59:13;;;;;;;5.15;1.30;;;2.50;99.90;;;;;;4431637;32;20544;-60
2023/12/08 05:01:38;;;;;;;2.80;1.15;;;2.50;99.90;;;;;;4432132;32;20077;-59
2023/12/08 05:04:04;;;;;;;2.28;1.42;;;2.50;99.90;;;;;;4435167;32;20443;-59
2023/12/08 05:06:29;;;;;;;1.30;1.20;;;2.40;99.90;;;;;;4429424;32;20077;-61
2023/12/08 05:08:55;;;;;;;1.65;1.25;;;2.40;99.90;;;;;;4430108;32;20069;-61
2023/12/08 05:11:21;;;;;;;0.98;0.93;;;2.40;99.90;;;;;;4414354;32;20057;-60
2023/12/08 05:13:46;;;;;;;0.98;0.98;;;2.40;99.90;;;;;;4428299;32;20081;-61
2023/12/08 05:16:12;;;;;;;2.25;1.48;;;2.50;99.90;;;;;;4430035;32;20090;-61
2023/12/08 05:18:38;;;;;;;1.30;1.20;;;2.40;99.90;;;;;;4433013;32;20078;-60
2023/12/08 05:21:04;;;;;;;5.18;1.10;;;2.40;99.90;;;;;;4422822;32;20100;-61
2023/12/08 05:23:29;;;;;;;4.85;2.37;;;2.50;99.90;;;;;;4430423;32;20486;-60
2023/12/08 05:25:55;;;;;;;0.50;0.50;;;2.50;99.90;;;;;;4428138;32;20069;-59
2023/12/08 05:28:20;;;;;;;0.93;0.93;;;2.50;99.90;;;;;;4429751;32;20490;-61
2023/12/08 05:30:46;;;;;;;0.60;0.60;;;2.40;99.90;;;;;;4428079;32;20505;-61
2023/12/08 05:33:11;;;;;;;2.97;1.98;;;2.30;99.90;;;;;;4426874;32;20073;-60
2023/12/08 05:35:37;;;;;;;1.95;1.62;;;2.40;99.90;;;;;;4430552;32;20069;-60
2023/12/08 05:38:02;;;;;;;1.02;1.02;;;2.30;99.90;;;;;;4428277;32;20072;-60
2023/12/08 05:40:28;;;;;;;2.67;1.20;;;2.40;99.90;;;;;;4430408;32;20094;-60
2023/12/08 05:42:53;;;;;;;0.85;0.85;;;2.30;99.90;;;;;;4430173;32;20064;-61
2023/12/08 05:45:19;;;;;;;1.75;1.58;;;2.30;99.90;;;;;;4415234;32;20077;-59
2023/12/08 05:47:44;;;;;;;0.73;0.73;;;2.30;99.90;;;;;;4430717;32;20124;-61
2023/12/08 05:50:10;;;;;;;1.52;1.17;;;2.20;99.90;;;;;;4431105;32;20077;-61
2023/12/08 05:52:36;;;;;;;0.93;0.93;;;2.20;99.90;;;;;;4416308;32;20118;-61
2023/12/08 05:55:02;;;;;;;2.35;1.62;;;2.10;99.90;;;;;;4431123;32;20078;-60
2023/12/08 05:57:27;;;;;;;0.93;0.93;;;2.10;99.90;;;;;;4428491;32;20082;-61
2023/12/08 05:59:53;;;;;;;2.22;1.73;;;2.00;99.90;;;;;;4429148;32;20073;-61
2023/12/08 06:02:18;;;;;;;1.48;1.37;;;2.00;99.90;;;;;;4432299;32;20077;-60
2023/12/08 06:04:44;;;;;;;1.02;1.02;;;2.00;99.90;;;;;;4429523;32;20117;-61
2023/12/08 06:07:10;;;;;;;1.23;1.08;;;2.10;99.90;;;;;;4418039;32;20068;-61
2023/12/08 06:09:36;;;;;;;1.10;1.10;;;2.10;99.90;;;;;;4429020;32;20070;-59
2023/12/08 06:12:02;;;;;;;3.20;1.25;;;2.10;99.90;;;;;;4427265;32;20113;-59
2023/12/08 06:14:27;;;;;;;1.92;0.85;;;2.10;99.90;;;;;;4415900;32;20120;-61
2023/12/08 06:16:52;;;;;;;0.62;0.62;;;2.10;99.90;;;;;;4429907;32;20078;-61
2023/12/08 06:19:18;;;;;;;0.45;0.45;;;2.10;99.90;;;;;;4424640;32;20116;-60
2023/12/08 06:21:43;;;;;;;0.62;0.62;;;2.20;99.90;;;;;;4419184;32;20192;-60
2023/12/08 06:24:09;;;;;;;1.23;1.20;;;2.10;99.90;;;;;;4430694;32;20074;-59
2023/12/08 06:26:38;;;;;;;4.95;1.45;;;2.10;99.90;;;;;;4413119;32;20082;-59
2023/12/08 06:29:03;;;;;;;1.62;1.15;;;2.10;99.90;;;;;;4406074;32;20573;-60
2023/12/08 06:31:29;;;;;;;4.45;1.70;;;2.10;99.90;;;;;;4423563;32;20064;-59
2023/12/08 06:33:55;;;;;;;6.03;1.25;;;2.20;99.90;;;;;;4419860;32;20431;-58
2023/12/08 06:36:20;;;;;;;0.40;0.40;;;2.10;99.90;;;;;;4424392;32;20069;-61
2023/12/08 06:38:46;;;;;;;1.10;1.10;;;2.10;99.90;;;;;;4424702;32;20069;-61
2023/12/08 06:41:11;;;;;;;1.85;1.35;;;2.10;99.90;;;;;;4423698;32;20081;-60
2023/12/08 06:43:37;;;;;;;0.62;0.62;;;2.10;99.90;;;;;;4423464;32;20101;-60
2023/12/08 06:46:03;;;;;;;0.70;0.70;;;2.10;99.90;;;;;;4425211;32;20069;-60
2023/12/08 06:48:28;;;;;;;14.43;3.97;;;2.00;99.90;;;;;;4424925;32;20129;-60
2023/12/08 06:50:54;;;;;;;1.00;0.93;;;2.10;99.90;;;;;;4414550;32;20144;-60
2023/12/08 06:53:19;;;;;;;3.53;1.62;;;2.10;99.90;;;;;;4416116;32;20682;-63
2023/12/08 06:55:45;;;;;;;1.55;1.45;;;2.10;99.90;;;;;;4394421;32;20098;-62
2023/12/08 06:58:10;;;;;;;0.90;0.90;;;2.10;99.90;;;;;;4402516;32;20069;-61
2023/12/08 07:00:36;;;;;;;2.50;1.55;;;2.20;99.90;;;;;;4385904;32;20211;-62
2023/12/08 07:03:02;;;;;;;1.35;1.25;;;2.10;99.90;;;;;;4401683;32;20204;-62
2023/12/08 07:05:27;;;;;;;0.80;0.80;;;2.00;99.90;;;;;;4402073;32;20682;-62
2023/12/08 07:07:54;;;;;;;1.17;1.12;;;2.00;99.90;;;;;;4400897;32;20112;-63
2023/12/08 07:10:20;;;;;;;1.30;1.20;;;2.10;99.90;;;;;;4396432;32;20199;-62
2023/12/08 07:12:45;;;;;;;0.73;0.73;;;2.10;99.90;;;;;;4378431;32;20098;-62
2023/12/08 07:15:11;;;;;;;6.12;2.55;;;2.10;99.90;;;;;;4396740;32;20076;-62
2023/12/08 07:17:37;;;;;;;1.65;1.35;;;2.00;99.90;;;;;;4389475;32;20081;-62
2023/12/08 07:20:06;;;;;;;1.25;0.90;;;2.10;99.90;;;;;;4403456;32;20170;-62
2023/12/08 07:22:32;;;;;;;2.75;1.27;;;2.10;99.90;;;;;;4406928;32;20868;-62
2023/12/08 07:24:58;;;;;;;8.10;4.43;;;2.00;99.90;;;;;;4406000;32;20065;-62
2023/12/08 07:27:23;;;;;;;1.00;1.00;;;2.00;99.90;;;;;;4400237;32;21205;-61
2023/12/08 07:29:49;;;;;;;0.90;0.90;;;2.10;99.90;;;;;;4406210;32;20123;-61
2023/12/08 07:32:14;;;;;;;3.55;1.48;;;2.10;99.90;;;;;;4405432;32;20782;-60
2023/12/08 07:34:40;;;;;;;1.67;1.55;;;2.10;99.90;;;;;;4405684;32;20102;-63
2023/12/08 07:37:05;;;;;;;2.85;1.33;;;2.10;99.90;;;;;;4404645;32;20522;-62
2023/12/08 07:39:31;;;;;;;2.35;2.00;;;2.10;99.90;;;;;;4405620;32;20129;-63
2023/12/08 07:41:56;;;;;;;0.60;0.60;;;2.10;99.90;;;;;;4402485;32;20133;-62
2023/12/08 07:44:22;;;;;;;0.93;0.93;;;2.10;99.90;;;;;;4397182;32;20090;-61
2023/12/08 07:46:47;;;;;;;2.15;2.00;;;2.00;99.90;;;;;;4392030;32;20105;-61
2023/12/08 07:49:13;;;;;;;0.73;0.73;;;2.10;99.90;;;;;;4405415;32;20172;-60
2023/12/08 07:51:38;;;;;;;1.02;1.02;;;2.10;99.90;;;;;;4386415;32;20084;-61
2023/12/08 07:54:04;;;;;;;1.17;1.05;;;2.10;99.90;;;;;;4385870;32;20742;-60
2023/12/08 07:56:29;;;;;;;0.93;0.93;;;2.10;99.90;;;;;;4382653;32;20250;-61
2023/12/08 07:58:55;;;;;;;1.37;1.27;;;2.10;99.90;;;;;;4385682;32;20704;-61
2023/12/08 08:01:20;;;;;;;0.60;0.60;;;2.10;99.90;;;;;;4386443;32;20089;-61
2023/12/08 08:03:45;;;;;;;2.50;1.67;;;2.00;99.90;;;;;;4391901;32;20094;-60
2023/12/08 08:06:11;;;;;;;0.65;0.65;;;2.00;99.90;;;;;;4390670;32;20248;-61
2023/12/08 08:08:37;;;;;;;4.72;1.85;;;2.00;99.90;;;;;;4367473;32;20094;-60
2023/12/08 08:11:03;;;;;;;1.12;1.02;;;2.00;99.90;;;;;;4384593;32;20094;-60
2023/12/08 08:13:28;;;;;;;0.65;0.65;;;2.00;99.90;;;;;;4375825;32;20658;-60
2023/12/08 08:15:54;;;;;;;0.50;0.50;;;2.00;99.90;;;;;;4382464;32;20086;-61
2023/12/08 08:18:19;;;;;;;1.15;1.05;;;2.10;99.90;;;;;;4384967;32;20498;-62
2023/12/08 08:20:44;;;;;;;1.00;1.00;;;2.10;99.90;;;;;;4372711;32;20160;-60
2023/12/08 08:23:10;;;;;;;2.05;1.90;;;2.10;99.90;;;;;;4380976;32;20066;-60
2023/12/08 08:25:36;;;;;;;1.00;1.00;;;2.20;99.90;;;;;;4388110;32;20544;-62
2023/12/08 08:28:01;;;;;;;3.33;1.48;;;2.20;99.90;;;;;;4392643;32;20073;-61
2023/12/08 08:30:27;;;;;;;0.73;0.73;;;2.30;99.90;;;;;;4388877;32;21099;-60
2023/12/08 08:32:52;;;;;;;2.35;1.17;;;2.20;99.90;;;;;;4372293;32;20089;-60
2023/12/08 08:35:18;;;;;;;1.02;1.02;;;2.30;99.90;;;;;;4386025;32;20145;-59
2023/12/08 08:37:44;;;;;;;2.92;2.03;;;2.30;99.90;;;;;;4395786;32;20925;-58
2023/12/08 08:40:10;;;;;;;1.08;0.98;;;2.30;99.90;;;;;;4381926;32;20110;-61
2023/12/08 08:42:37;;;;;;;1.50;1.20;;;2.30;99.90;;;;;;4390239;32;20539;-61
2023/12/08 08:45:04;;;;;;;0.90;0.88;;;2.40;99.90;;;;;;4376359;32;20100;-60
2023/12/08 08:47:30;;;;;;;3.33;1.58;;;2.40;99.90;;;;;;4385134;32;20116;-60
2023/12/08 08:49:55;;;;;;;3.03;1.83;;;2.40;99.90;;;;;;4379950;32;20090;-59
2023/12/08 08:52:21;;;;;;;0.70;0.70;;;2.40;99.90;;;;;;4382079;32;20085;-60
2023/12/08 08:54:46;;;;;;;1.87;1.60;;;2.40;99.90;;;;;;4385575;32;20082;-61
2023/12/08 08:57:12;;;;;;;0.80;0.80;;;2.40;99.90;;;;;;4388652;32;20250;-60
2023/12/08 08:59:37;;;;;;;2.28;1.58;;;2.30;99.90;;;;;;4389644;32;20141;-59
2023/12/08 09:02:03;;;;;;;5.97;2.05;;;2.30;99.90;;;;;;4394421;32;21269;-59
2023/12/08 09:04:29;;;;;;;3.25;2.25;;;2.30;99.90;;;;;;4381094;32;20094;-62
2023/12/08 09:06:56;;;;;;;1.17;1.17;;;2.40;99.90;;;;;;4395269;32;20069;-61
2023/12/08 09:09:22;;;;;;;1.95;1.15;;;2.50;99.90;;;;;;4395295;32;20101;-60
2023/12/08 09:11:47;;;;;;;3.85;2.17;;;2.50;99.90;;;;;;4384083;32;20149;-61
2023/12/08 09:14:14;;;;;;;0.82;0.82;;;2.40;99.90;;;;;;4389397;32;20108;-60
2023/12/08 09:16:40;;;;;;;0.65;0.65;;;2.40;99.90;;;;;;4379439;32;20086;-58
2023/12/08 09:19:05;;;;;;;1.23;1.12;;;2.30;99.90;;;;;;4389912;32;20090;-61
2023/12/08 09:21:31;;;;;;;1.05;0.98;;;2.40;99.90;;;;;;4397332;32;20141;-59
2023/12/08 09:23:57;;;;;;;0.68;0.65;;;2.40;99.90;;;;;;4397570;32;20073;-62
2023/12/08 09:26:22;;;;;;;7.05;1.50;;;2.50;99.90;;;;;;4382519;32;20101;-61
2023/12/08 09:28:49;;;;;;;1.60;1.37;;;2.50;99.90;;;;;;4394251;32;20076;-59
2023/12/08 09:31:15;;;;;;;0.77;0.77;;;2.50;99.90;;;;;;4394175;32;20082;-61
2023/12/08 09:33:42;;;;;;;0.60;0.60;;;2.50;99.90;;;;;;4396294;32;20532;-60
2023/12/08 09:36:08;;;;;;;0.75;0.75;;;2.40;99.90;;;;;;4394113;32;20105;-60
2023/12/08 09:38:34;;;;;;;0.88;0.88;;;2.50;99.90;;;;;;4382998;32;20667;-59
2023/12/08 09:41:01;;;;;;;1.27;1.17;;;2.50;99.90;;;;;;4393557;32;20103;-61
2023/12/08 09:43:38;;;;;;;1.10;1.08;;;2.50;99.90;;;;;;4388875;32;20526;-62
2023/12/08 09:46:03;;;;;;;2.08;1.92;;;2.60;99.90;;;;;;4374679;32;20136;-61
2023/12/08 09:48:33;;;;;;;0.55;0.55;;;2.50;99.90;;;;;;4377135;32;20074;-63
2023/12/08 09:51:01;;;;;;;2.47;1.70;;;2.60;99.90;;;;;;4397325;32;20526;-61
2023/12/08 09:53:27;;;;;;;2.35;1.42;;;2.70;99.90;;;;;;4399491;32;20085;-61
2023/12/08 09:55:53;;;;;;;1.10;1.08;;;2.60;99.90;;;;;;4385530;32;20517;-61
2023/12/08 09:58:22;;;;;;;1.08;1.05;;;2.70;99.90;;;;;;4399183;32;20076;-62
2023/12/08 10:00:48;;;;;;;1.75;1.52;;;2.70;99.90;;;;;;4400647;32;25990;-60
2023/12/08 10:03:14;;;;;;;6.32;1.98;;;2.60;99.90;;;;;;4396258;32;20528;-61
2023/12/08 10:05:40;;;;;;;0.60;0.60;;;2.60;99.90;;;;;;4394528;32;20098;-59
2023/12/08 10:08:08;;;;;;;0.90;0.90;;;2.60;99.90;;;;;;4399342;32;20560;-59
2023/12/08 10:10:34;;;;;;;2.33;1.95;;;2.60;99.90;;;;;;4385543;32;20498;-60
2023/12/08 10:13:00;;;;;;;0.85;0.85;;;2.70;99.90;;;;;;4377186;32;20106;-61
2023/12/08 10:15:26;;;;;;;2.67;1.77;;;2.60;99.90;;;;;;4385802;32;20060;-60
2023/12/08 10:17:52;;;;;;;0.80;0.80;;;2.70;99.90;;;;;;4399818;32;21242;-63
2023/12/08 10:20:19;;;;;;;1.55;0.98;;;2.60;99.90;;;;;;4380771;32;20698;-61
2023/12/08 10:22:54;;;;;;;1.15;1.05;;;2.60;99.90;;;;;;4391172;32;20097;-62
2023/12/08 10:25:23;;;;;;;2.53;1.55;;;2.60;99.90;;;;;;4376857;32;20069;-60
2023/12/08 10:27:52;;;;;;;1.80;1.27;;;2.50;99.90;;;;;;4387941;32;20157;-61
2023/12/08 10:30:19;;;;;;;0.75;0.75;;;2.60;99.90;;;;;;4409328;32;20146;-59
2023/12/08 10:32:46;;;;;;;0.80;0.80;;;2.50;99.90;;;;;;4399869;32;20615;-60
2023/12/08 10:35:12;;;;;;;1.20;0.98;;;2.60;99.90;;;;;;4357981;32;20201;-60
2023/12/08 10:37:40;;;;;;;3.83;1.58;;;2.60;99.90;;;;;;4383200;32;20077;-59
2023/12/08 10:40:08;;;;;;;0.93;0.88;;;2.60;99.90;;;;;;4382694;32;20978;-59
2023/12/08 10:42:33;;;;;;;0.75;0.75;;;2.50;99.90;;;;;;4385580;32;20098;-59
2023/12/08 10:45:00;;;;;;;7.15;1.83;;;2.60;99.90;;;;;;4404633;32;20151;-60
2023/12/08 10:47:26;;;;;;;0.60;0.60;;;2.60;99.90;;;;;;4398968;32;21030;-57
2023/12/08 10:49:54;;;;;;;1.35;1.25;;;2.60;99.90;;;;;;4397468;32;20073;-60
2023/12/08 10:52:22;;;;;;;0.62;0.62;;;2.70;99.90;;;;;;4398595;32;20082;-61
2023/12/08 10:54:48;;;;;;;1.25;1.15;;;2.70;99.90;;;;;;4398036;32;20948;-60
2023/12/08 10:57:17;;;;;;;0.73;0.73;;;2.70;99.90;;;;;;4402483;32;20146;-60
2023/12/08 10:59:45;;;;;;;32.05;2.78;;;2.70;99.90;;;;;;4393817;32;20192;-60
2023/12/08 11:02:20;;;;;;;0.50;0.50;;;2.60;99.90;;;;;;4382377;32;20176;-61
2023/12/08 11:04:53;;;;;;;1.17;0.90;;;2.60;99.90;;;;;;4385188;32;20180;-59
2023/12/08 11:07:25;;;;;;;0.88;0.82;;;2.70;99.90;;;;;;4378422;32;21189;-59
2023/12/08 11:09:52;;;;;;;0.70;0.70;;;2.60;99.90;;;;;;4380785;32;20080;-59
2023/12/08 11:12:20;;;;;;;1.15;1.08;;;2.60;99.90;;;;;;4403620;32;20543;-60
2023/12/08 11:14:53;;;;;;;1.10;1.02;;;2.50;99.90;;;;;;4398153;32;20261;-60
2023/12/08 11:17:26;;;;;;;0.70;0.70;;;2.40;99.90;;;;;;4395122;32;20089;-60
2023/12/08 11:19:53;;;;;;;0.60;0.60;;;2.30;99.90;;;;;;4390350;32;20109;-59
2023/12/08 11:22:19;;;;;;;0.98;0.80;;;2.30;99.90;;;;;;4405788;32;20391;-61
2023/12/08 11:24:45;;;;;;;0.70;0.70;;;2.30;99.90;;;;;;4403013;32;20069;-61
2023/12/08 11:27:21;;;;;;;1.23;1.20;;;2.30;99.90;;;;;;4408816;32;20117;-60
2023/12/08 11:30:06;;;;;;;1.20;1.10;;;2.30;99.90;;;;;;4398275;32;20608;-60
2023/12/08 11:32:44;;;;;;;3.00;1.23;;;2.40;99.90;;;;;;4407489;32;20074;-59
2023/12/08 11:35:12;;;;;;;1.33;1.23;;;2.40;99.90;;;;;;4414154;32;20134;-59
2023/12/08 11:37:40;;;;;;;0.88;0.85;;;2.30;99.90;;;;;;4388778;32;20073;-61
2023/12/08 11:40:10;;;;;;;1.55;0.65;;;2.30;99.90;;;;;;4396525;32;20082;-62
2023/12/08 11:42:37;;;;;;;1.90;1.35;;;2.40;99.90;;;;;;4415191;32;20081;-60
2023/12/08 11:45:05;;;;;;;0.93;0.93;;;2.40;99.90;;;;;;4405358;32;20086;-61
2023/12/08 11:47:31;;;;;;;1.37;1.15;;;2.60;99.90;;;;;;4420250;32;20477;-63
2023/12/08 11:49:56;;;;;;;0.75;0.75;;;2.50;99.90;;;;;;4392250;32;86776;-60
2023/12/08 11:52:28;;;;;;;0.60;0.60;;;2.50;99.90;;;;;;4415844;32;20081;-61
2023/12/08 11:55:15;;;;;;;0.52;0.52;;;2.60;99.90;;;;;;4407137;32;20326;-59
2023/12/08 11:57:52;;;;;;;0.88;0.88;;;2.40;99.90;;;;;;4392932;32;20100;-61
2023/12/08 12:00:19;;;;;;;0.82;0.77;;;2.40;99.90;;;;;;4408983;32;20085;-58
2023/12/08 12:02:47;;;;;;;0.65;0.65;;;2.40;99.90;;;;;;4403428;32;20085;-60
2023/12/08 12:05:13;;;;;;;1.10;1.05;;;2.40;99.90;;;;;;4383155;32;20081;-62
2023/12/08 12:07:39;;;;;;;9.63;2.08;;;2.40;99.90;;;;;;4381999;32;21049;-60
2023/12/08 12:10:10;;;;;;;0.45;0.45;;;2.30;99.90;;;;;;4397086;32;20715;-62
2023/12/08 12:12:39;;;;;;;0.50;0.50;;;2.30;99.90;;;;;;4394222;32;20097;-60
2023/12/08 12:15:07;;;;;;;1.05;1.05;;;2.30;99.90;;;;;;4395478;32;20132;-59
2023/12/08 12:17:32;;;;;;;1.08;1.08;;;2.30;99.90;;;;;;4398765;32;20086;-59
2023/12/08 12:19:58;;;;;;;0.95;0.95;;;2.40;99.90;;;;;;4404480;32;20081;-58
2023/12/08 12:22:24;;;;;;;3.90;1.55;;;2.40;99.90;;;;;;4407001;32;20832;-60
2023/12/08 12:24:50;;;;;;;0.65;0.65;;;2.50;99.90;;;;;;4393522;32;20069;-61
2023/12/08 12:27:15;;;;;;;4.57;3.00;;;2.40;99.90;;;;;;4403045;32;20541;-60
2023/12/08 12:29:42;;;;;;;0.57;0.57;;;2.50;99.90;;;;;;4408800;32;20176;-60
2023/12/08 12:32:08;;;;;;;1.15;1.15;;;2.40;99.90;;;;;;4403294;32;20068;-59
2023/12/08 12:34:38;;;;;;;3.42;1.30;;;2.50;99.90;;;;;;4399100;32;20198;-60
2023/12/08 12:37:05;;;;;;;3.30;1.48;;;2.60;99.90;;;;;;4396057;32;20749;-60
2023/12/08 12:39:30;;;;;;;0.70;0.70;;;2.70;99.90;;;;;;4398658;32;20735;-62
2023/12/08 12:41:58;;;;;;;1.05;0.95;;;2.80;99.90;;;;;;4404697;32;20109;-62
2023/12/08 12:44:38;;;;;;;1.45;1.35;;;2.70;99.90;;;;;;4391575;32;20176;-60
2023/12/08 12:47:04;;;;;;;0.50;0.50;;;2.50;99.90;;;;;;4399077;32;20097;-62
2023/12/08 12:49:30;;;;;;;1.23;1.12;;;2.50;99.90;;;;;;4401817;32;20094;-61
2023/12/08 12:51:55;;;;;;;0.60;0.60;;;2.60;99.90;;;;;;4412773;32;20078;-61